sensor_id;sensor_type;location;lat;lon;timestamp;P1;durP1;ratioP1;P2;durP2;ratioP2
64252;SDS011;50592;52.958;-7.470;2023-05-19T00:00:24;35.75;;;6.63;;
64252;SDS011;50592;52.958;-7.470;2023-05-19T00:02:55;35.42;;;6.70;;
64252;SDS011;50592;52.958;-7.470;2023-05-19T00:05:27;35.38;;;8.30;;
64252;SDS011;50592;52.958;-7.470;2023-05-19T00:07:58;42.28;;;7.95;;
64252;SDS011;50592;52.958;-7.470;2023-05-19T00:10:28;32.95;;;7.13;;
64252;SDS011;50592;52.958;-7.470;2023-05-19T00:13:00;43.38;;;8.00;;
64252;SDS011;50592;52.958;-7.470;2023-05-19T00:15:30;34.17;;;6.18;;
64252;SDS011;50592;52.958;-7.470;2023-05-19T00:18:00;38.78;;;8.10;;
64252;SDS011;50592;52.958;-7.470;2023-05-19T00:20:30;35.95;;;6.57;;
64252;SDS011;50592;52.958;-7.470;2023-05-19T00:23:00;35.78;;;7.32;;
64252;SDS011;50592;52.958;-7.470;2023-05-19T00:25:29;33.03;;;6.57;;
64252;SDS011;50592;52.958;-7.470;2023-05-19T00:27:56;43.03;;;7.35;;
64252;SDS011;50592;52.958;-7.470;2023-05-19T00:30:26;34.63;;;7.38;;
64252;SDS011;50592;52.958;-7.470;2023-05-19T00:32:57;38.28;;;7.10;;
64252;SDS011;50592;52.958;-7.470;2023-05-19T00:35:26;42.83;;;8.05;;
64252;SDS011;50592;52.958;-7.470;2023-05-19T00:37:56;41.67;;;7.38;;
64252;SDS011;50592;52.958;-7.470;2023-05-19T00:40:26;36.58;;;7.03;;
64252;SDS011;50592;52.958;-7.470;2023-05-19T00:42:59;40.08;;;7.07;;
64252;SDS011;50592;52.958;-7.470;2023-05-19T00:45:28;33.10;;;7.13;;
64252;SDS011;50592;52.958;-7.470;2023-05-19T00:47:59;35.10;;;7.03;;
64252;SDS011;50592;52.958;-7.470;2023-05-19T00:50:29;39.78;;;7.30;;
64252;SDS011;50592;52.958;-7.470;2023-05-19T00:52:56;36.45;;;7.35;;
64252;SDS011;50592;52.958;-7.470;2023-05-19T00:55:28;34.55;;;6.80;;
64252;SDS011;50592;52.958;-7.470;2023-05-19T00:57:57;33.35;;;6.78;;
64252;SDS011;50592;52.958;-7.470;2023-05-19T01:00:27;37.35;;;7.20;;
64252;SDS011;50592;52.958;-7.470;2023-05-19T01:02:55;42.60;;;6.75;;
64252;SDS011;50592;52.958;-7.470;2023-05-19T01:05:24;51.60;;;8.68;;
64252;SDS011;50592;52.958;-7.470;2023-05-19T01:07:52;37.53;;;7.55;;
64252;SDS011;50592;52.958;-7.470;2023-05-19T01:10:22;32.80;;;6.65;;
64252;SDS011;50592;52.958;-7.470;2023-05-19T01:12:49;32.15;;;7.25;;
64252;SDS011;50592;52.958;-7.470;2023-05-19T01:15:19;37.03;;;6.82;;
64252;SDS011;50592;52.958;-7.470;2023-05-19T01:17:53;38.65;;;7.03;;
64252;SDS011;50592;52.958;-7.470;2023-05-19T01:20:38;37.83;;;7.68;;
64252;SDS011;50592;52.958;-7.470;2023-05-19T01:26:10;38.13;;;7.28;;
64252;SDS011;50592;52.958;-7.470;2023-05-19T01:29:06;34.17;;;6.60;;
64252;SDS011;50592;52.958;-7.470;2023-05-19T01:31:54;42.75;;;7.95;;
64252;SDS011;50592;52.958;-7.470;2023-05-19T01:34:28;33.55;;;6.80;;
64252;SDS011;50592;52.958;-7.470;2023-05-19T01:36:56;37.90;;;7.68;;
64252;SDS011;50592;52.958;-7.470;2023-05-19T01:39:29;30.55;;;6.97;;
64252;SDS011;50592;52.958;-7.470;2023-05-19T01:41:59;35.45;;;6.75;;
64252;SDS011;50592;52.958;-7.470;2023-05-19T01:44:30;38.30;;;7.65;;
64252;SDS011;50592;52.958;-7.470;2023-05-19T01:47:01;35.85;;;6.40;;
64252;SDS011;50592;52.958;-7.470;2023-05-19T01:49:32;47.53;;;8.00;;
64252;SDS011;50592;52.958;-7.470;2023-05-19T01:52:02;39.10;;;7.35;;
64252;SDS011;50592;52.958;-7.470;2023-05-19T01:54:32;45.33;;;8.70;;
64252;SDS011;50592;52.958;-7.470;2023-05-19T01:57:09;41.20;;;7.97;;
64252;SDS011;50592;52.958;-7.470;2023-05-19T02:00:32;40.55;;;7.43;;
64252;SDS011;50592;52.958;-7.470;2023-05-19T02:09:03;32.83;;;7.43;;
64252;SDS011;50592;52.958;-7.470;2023-05-19T02:11:37;42.53;;;8.43;;
64252;SDS011;50592;52.958;-7.470;2023-05-19T02:14:23;36.13;;;7.10;;
64252;SDS011;50592;52.958;-7.470;2023-05-19T02:16:56;34.25;;;6.85;;
64252;SDS011;50592;52.958;-7.470;2023-05-19T02:19:28;33.42;;;6.78;;
64252;SDS011;50592;52.958;-7.470;2023-05-19T02:21:57;37.95;;;6.82;;
64252;SDS011;50592;52.958;-7.470;2023-05-19T02:24:27;43.03;;;7.70;;
64252;SDS011;50592;52.958;-7.470;2023-05-19T02:26:59;32.40;;;6.13;;
64252;SDS011;50592;52.958;-7.470;2023-05-19T02:29:26;41.83;;;7.88;;
64252;SDS011;50592;52.958;-7.470;2023-05-19T02:31:55;37.03;;;7.38;;
64252;SDS011;50592;52.958;-7.470;2023-05-19T02:34:21;28.73;;;6.55;;
64252;SDS011;50592;52.958;-7.470;2023-05-19T02:36:51;39.00;;;7.63;;
64252;SDS011;50592;52.958;-7.470;2023-05-19T02:39:21;29.75;;;5.97;;
64252;SDS011;50592;52.958;-7.470;2023-05-19T02:41:47;32.17;;;6.50;;
64252;SDS011;50592;52.958;-7.470;2023-05-19T02:44:17;34.92;;;5.78;;
64252;SDS011;50592;52.958;-7.470;2023-05-19T02:46:47;31.27;;;6.40;;
64252;SDS011;50592;52.958;-7.470;2023-05-19T02:49:17;23.52;;;5.13;;
64252;SDS011;50592;52.958;-7.470;2023-05-19T02:51:47;31.23;;;5.75;;
64252;SDS011;50592;52.958;-7.470;2023-05-19T02:54:13;36.65;;;6.63;;
64252;SDS011;50592;52.958;-7.470;2023-05-19T02:56:42;26.42;;;6.03;;
64252;SDS011;50592;52.958;-7.470;2023-05-19T02:59:09;33.80;;;6.75;;
64252;SDS011;50592;52.958;-7.470;2023-05-19T03:01:39;25.98;;;6.93;;
64252;SDS011;50592;52.958;-7.470;2023-05-19T03:04:08;18.55;;;5.93;;
64252;SDS011;50592;52.958;-7.470;2023-05-19T03:06:38;22.05;;;5.78;;
64252;SDS011;50592;52.958;-7.470;2023-05-19T03:09:09;23.25;;;5.43;;
64252;SDS011;50592;52.958;-7.470;2023-05-19T03:11:39;38.83;;;6.25;;
64252;SDS011;50592;52.958;-7.470;2023-05-19T03:14:06;22.25;;;5.80;;
64252;SDS011;50592;52.958;-7.470;2023-05-19T03:16:40;21.27;;;5.13;;
64252;SDS011;50592;52.958;-7.470;2023-05-19T03:19:10;22.77;;;5.65;;
64252;SDS011;50592;52.958;-7.470;2023-05-19T03:21:40;30.35;;;5.78;;
64252;SDS011;50592;52.958;-7.470;2023-05-19T03:24:07;25.95;;;6.15;;
64252;SDS011;50592;52.958;-7.470;2023-05-19T03:26:36;28.40;;;6.00;;
64252;SDS011;50592;52.958;-7.470;2023-05-19T03:29:03;30.92;;;5.70;;
64252;SDS011;50592;52.958;-7.470;2023-05-19T03:31:36;22.10;;;6.22;;
64252;SDS011;50592;52.958;-7.470;2023-05-19T03:34:03;26.20;;;5.82;;
64252;SDS011;50592;52.958;-7.470;2023-05-19T03:36:32;24.65;;;6.10;;
64252;SDS011;50592;52.958;-7.470;2023-05-19T03:39:08;23.00;;;6.05;;
64252;SDS011;50592;52.958;-7.470;2023-05-19T03:41:39;27.98;;;5.78;;
64252;SDS011;50592;52.958;-7.470;2023-05-19T03:44:08;22.80;;;5.88;;
64252;SDS011;50592;52.958;-7.470;2023-05-19T03:46:38;26.02;;;6.60;;
64252;SDS011;50592;52.958;-7.470;2023-05-19T03:49:08;18.85;;;4.68;;
64252;SDS011;50592;52.958;-7.470;2023-05-19T03:51:57;19.15;;;4.95;;
64252;SDS011;50592;52.958;-7.470;2023-05-19T03:54:45;24.55;;;4.93;;
64252;SDS011;50592;52.958;-7.470;2023-05-19T03:57:15;22.35;;;5.25;;
64252;SDS011;50592;52.958;-7.470;2023-05-19T03:59:45;25.25;;;5.40;;
64252;SDS011;50592;52.958;-7.470;2023-05-19T04:02:11;19.58;;;5.15;;
64252;SDS011;50592;52.958;-7.470;2023-05-19T04:04:40;21.73;;;5.85;;
64252;SDS011;50592;52.958;-7.470;2023-05-19T04:07:07;22.23;;;5.28;;
64252;SDS011;50592;52.958;-7.470;2023-05-19T04:09:36;28.13;;;5.68;;
64252;SDS011;50592;52.958;-7.470;2023-05-19T04:12:02;24.27;;;6.05;;
64252;SDS011;50592;52.958;-7.470;2023-05-19T04:14:33;24.92;;;6.15;;
64252;SDS011;50592;52.958;-7.470;2023-05-19T04:17:03;32.10;;;6.25;;
64252;SDS011;50592;52.958;-7.470;2023-05-19T04:19:34;24.85;;;6.15;;
64252;SDS011;50592;52.958;-7.470;2023-05-19T04:22:03;27.77;;;5.97;;
64252;SDS011;50592;52.958;-7.470;2023-05-19T04:24:33;22.15;;;4.70;;
64252;SDS011;50592;52.958;-7.470;2023-05-19T04:27:00;21.77;;;5.43;;
64252;SDS011;50592;52.958;-7.470;2023-05-19T04:29:31;29.17;;;5.93;;
64252;SDS011;50592;52.958;-7.470;2023-05-19T04:31:59;22.60;;;5.28;;
64252;SDS011;50592;52.958;-7.470;2023-05-19T04:34:27;28.08;;;7.13;;
64252;SDS011;50592;52.958;-7.470;2023-05-19T04:36:55;21.42;;;5.78;;
64252;SDS011;50592;52.958;-7.470;2023-05-19T04:39:23;24.48;;;5.30;;
64252;SDS011;50592;52.958;-7.470;2023-05-19T04:41:50;30.20;;;6.28;;
64252;SDS011;50592;52.958;-7.470;2023-05-19T04:44:21;21.20;;;5.63;;
64252;SDS011;50592;52.958;-7.470;2023-05-19T04:46:49;28.58;;;5.82;;
64252;SDS011;50592;52.958;-7.470;2023-05-19T04:49:22;20.13;;;5.25;;
64252;SDS011;50592;52.958;-7.470;2023-05-19T04:51:52;18.27;;;4.75;;
64252;SDS011;50592;52.958;-7.470;2023-05-19T04:54:22;17.02;;;5.07;;
64252;SDS011;50592;52.958;-7.470;2023-05-19T04:56:52;25.83;;;5.00;;
64252;SDS011;50592;52.958;-7.470;2023-05-19T04:59:22;21.65;;;5.03;;
64252;SDS011;50592;52.958;-7.470;2023-05-19T05:01:51;18.48;;;4.97;;
64252;SDS011;50592;52.958;-7.470;2023-05-19T05:04:22;19.15;;;5.10;;
64252;SDS011;50592;52.958;-7.470;2023-05-19T05:06:52;17.73;;;4.32;;
64252;SDS011;50592;52.958;-7.470;2023-05-19T05:09:22;21.55;;;5.38;;
64252;SDS011;50592;52.958;-7.470;2023-05-19T05:11:50;16.77;;;5.20;;
64252;SDS011;50592;52.958;-7.470;2023-05-19T05:14:17;20.05;;;4.97;;
64252;SDS011;50592;52.958;-7.470;2023-05-19T05:16:48;28.08;;;5.75;;
64252;SDS011;50592;52.958;-7.470;2023-05-19T05:19:20;21.05;;;5.78;;
64252;SDS011;50592;52.958;-7.470;2023-05-19T05:21:50;23.75;;;5.82;;
64252;SDS011;50592;52.958;-7.470;2023-05-19T05:24:20;33.25;;;5.90;;
64252;SDS011;50592;52.958;-7.470;2023-05-19T05:26:52;29.08;;;5.22;;
64252;SDS011;50592;52.958;-7.470;2023-05-19T05:29:22;25.52;;;5.55;;
64252;SDS011;50592;52.958;-7.470;2023-05-19T05:31:53;27.98;;;6.28;;
64252;SDS011;50592;52.958;-7.470;2023-05-19T05:34:23;30.90;;;6.72;;
64252;SDS011;50592;52.958;-7.470;2023-05-19T05:36:50;34.00;;;6.38;;
64252;SDS011;50592;52.958;-7.470;2023-05-19T05:39:19;21.88;;;4.85;;
64252;SDS011;50592;52.958;-7.470;2023-05-19T05:41:46;25.50;;;5.80;;
64252;SDS011;50592;52.958;-7.470;2023-05-19T05:44:15;26.48;;;6.20;;
64252;SDS011;50592;52.958;-7.470;2023-05-19T05:46:43;24.60;;;5.05;;
64252;SDS011;50592;52.958;-7.470;2023-05-19T05:49:13;23.10;;;5.25;;
64252;SDS011;50592;52.958;-7.470;2023-05-19T05:51:46;27.30;;;5.47;;
64252;SDS011;50592;52.958;-7.470;2023-05-19T05:54:16;23.50;;;5.05;;
64252;SDS011;50592;52.958;-7.470;2023-05-19T05:56:51;24.95;;;5.38;;
64252;SDS011;50592;52.958;-7.470;2023-05-19T05:59:21;27.85;;;6.05;;
64252;SDS011;50592;52.958;-7.470;2023-05-19T06:01:51;31.80;;;6.53;;
64252;SDS011;50592;52.958;-7.470;2023-05-19T06:04:19;27.70;;;5.55;;
64252;SDS011;50592;52.958;-7.470;2023-05-19T06:06:48;31.58;;;6.07;;
64252;SDS011;50592;52.958;-7.470;2023-05-19T06:09:19;24.67;;;5.85;;
64252;SDS011;50592;52.958;-7.470;2023-05-19T06:11:49;24.70;;;4.68;;
64252;SDS011;50592;52.958;-7.470;2023-05-19T06:14:19;20.83;;;4.80;;
64252;SDS011;50592;52.958;-7.470;2023-05-19T06:17:08;21.33;;;5.22;;
64252;SDS011;50592;52.958;-7.470;2023-05-19T06:19:34;29.30;;;7.20;;
64252;SDS011;50592;52.958;-7.470;2023-05-19T06:22:03;30.33;;;5.63;;
64252;SDS011;50592;52.958;-7.470;2023-05-19T06:24:30;26.60;;;5.53;;
64252;SDS011;50592;52.958;-7.470;2023-05-19T06:26:59;28.92;;;5.60;;
64252;SDS011;50592;52.958;-7.470;2023-05-19T06:29:26;31.40;;;7.05;;
64252;SDS011;50592;52.958;-7.470;2023-05-19T06:31:57;34.45;;;6.35;;
64252;SDS011;50592;52.958;-7.470;2023-05-19T06:34:24;34.85;;;6.60;;
64252;SDS011;50592;52.958;-7.470;2023-05-19T06:36:54;39.17;;;7.25;;
64252;SDS011;50592;52.958;-7.470;2023-05-19T06:39:25;34.47;;;6.97;;
64252;SDS011;50592;52.958;-7.470;2023-05-19T06:41:56;31.58;;;6.68;;
64252;SDS011;50592;52.958;-7.470;2023-05-19T06:45:00;38.88;;;7.80;;
64252;SDS011;50592;52.958;-7.470;2023-05-19T06:47:28;32.55;;;7.22;;
64252;SDS011;50592;52.958;-7.470;2023-05-19T07:00:35;37.90;;;6.85;;
64252;SDS011;50592;52.958;-7.470;2023-05-19T07:03:06;32.92;;;7.15;;
64252;SDS011;50592;52.958;-7.470;2023-05-19T07:05:36;33.45;;;6.10;;
64252;SDS011;50592;52.958;-7.470;2023-05-19T07:08:06;36.25;;;6.82;;
64252;SDS011;50592;52.958;-7.470;2023-05-19T07:10:34;37.50;;;6.90;;
64252;SDS011;50592;52.958;-7.470;2023-05-19T07:13:07;33.83;;;7.10;;
64252;SDS011;50592;52.958;-7.470;2023-05-19T07:15:36;29.70;;;6.18;;
64252;SDS011;50592;52.958;-7.470;2023-05-19T07:18:04;32.00;;;6.22;;
64252;SDS011;50592;52.958;-7.470;2023-05-19T07:20:32;27.92;;;6.45;;
64252;SDS011;50592;52.958;-7.470;2023-05-19T07:23:00;30.15;;;6.65;;
64252;SDS011;50592;52.958;-7.470;2023-05-19T07:25:29;32.80;;;6.93;;
64252;SDS011;50592;52.958;-7.470;2023-05-19T07:27:56;30.52;;;6.60;;
64252;SDS011;50592;52.958;-7.470;2023-05-19T07:30:26;32.30;;;7.13;;
64252;SDS011;50592;52.958;-7.470;2023-05-19T07:32:53;30.58;;;6.10;;
64252;SDS011;50592;52.958;-7.470;2023-05-19T07:35:22;31.92;;;7.20;;
64252;SDS011;50592;52.958;-7.470;2023-05-19T07:37:49;34.88;;;7.53;;
64252;SDS011;50592;52.958;-7.470;2023-05-19T07:40:19;40.35;;;6.85;;
64252;SDS011;50592;52.958;-7.470;2023-05-19T07:42:47;32.00;;;6.22;;
64252;SDS011;50592;52.958;-7.470;2023-05-19T07:45:17;42.72;;;7.22;;
64252;SDS011;50592;52.958;-7.470;2023-05-19T07:47:44;28.42;;;7.18;;
64252;SDS011;50592;52.958;-7.470;2023-05-19T07:50:12;23.52;;;6.10;;
64252;SDS011;50592;52.958;-7.470;2023-05-19T07:52:39;28.65;;;6.88;;
64252;SDS011;50592;52.958;-7.470;2023-05-19T07:55:08;36.33;;;7.05;;
64252;SDS011;50592;52.958;-7.470;2023-05-19T07:57:35;29.00;;;6.35;;
64252;SDS011;50592;52.958;-7.470;2023-05-19T08:00:03;24.05;;;6.32;;
64252;SDS011;50592;52.958;-7.470;2023-05-19T08:02:37;34.58;;;6.53;;
64252;SDS011;50592;52.958;-7.470;2023-05-19T08:05:06;27.20;;;6.32;;
64252;SDS011;50592;52.958;-7.470;2023-05-19T08:07:34;26.40;;;6.28;;
64252;SDS011;50592;52.958;-7.470;2023-05-19T08:10:03;31.00;;;6.95;;
64252;SDS011;50592;52.958;-7.470;2023-05-19T08:12:30;33.05;;;6.88;;
64252;SDS011;50592;52.958;-7.470;2023-05-19T08:14:59;28.05;;;6.95;;
64252;SDS011;50592;52.958;-7.470;2023-05-19T08:17:25;33.13;;;8.23;;
64252;SDS011;50592;52.958;-7.470;2023-05-19T08:19:55;25.50;;;5.47;;
64252;SDS011;50592;52.958;-7.470;2023-05-19T08:22:25;31.05;;;5.68;;
64252;SDS011;50592;52.958;-7.470;2023-05-19T08:24:55;26.60;;;5.95;;
64252;SDS011;50592;52.958;-7.470;2023-05-19T08:27:25;23.77;;;5.90;;
64252;SDS011;50592;52.958;-7.470;2023-05-19T08:29:52;25.05;;;5.63;;
64252;SDS011;50592;52.958;-7.470;2023-05-19T08:32:21;27.23;;;6.43;;
64252;SDS011;50592;52.958;-7.470;2023-05-19T08:34:48;31.38;;;7.20;;
64252;SDS011;50592;52.958;-7.470;2023-05-19T08:48:41;31.50;;;6.00;;
64252;SDS011;50592;52.958;-7.470;2023-05-19T08:54:08;35.30;;;6.20;;
64252;SDS011;50592;52.958;-7.470;2023-05-19T08:56:43;27.60;;;5.78;;
64252;SDS011;50592;52.958;-7.470;2023-05-19T08:59:13;25.85;;;6.40;;
64252;SDS011;50592;52.958;-7.470;2023-05-19T09:01:44;28.13;;;6.53;;
64252;SDS011;50592;52.958;-7.470;2023-05-19T09:04:14;17.15;;;3.75;;
64252;SDS011;50592;52.958;-7.470;2023-05-19T09:06:45;22.52;;;5.05;;
64252;SDS011;50592;52.958;-7.470;2023-05-19T09:09:15;18.90;;;4.55;;
64252;SDS011;50592;52.958;-7.470;2023-05-19T09:11:44;22.15;;;4.68;;
64252;SDS011;50592;52.958;-7.470;2023-05-19T09:14:12;18.27;;;4.47;;
64252;SDS011;50592;52.958;-7.470;2023-05-19T09:16:40;23.52;;;5.22;;
64252;SDS011;50592;52.958;-7.470;2023-05-19T09:19:12;13.82;;;3.95;;
64252;SDS011;50592;52.958;-7.470;2023-05-19T09:21:43;23.38;;;4.70;;
64252;SDS011;50592;52.958;-7.470;2023-05-19T09:24:13;28.23;;;5.18;;
64252;SDS011;50592;52.958;-7.470;2023-05-19T09:26:40;21.98;;;5.20;;
64252;SDS011;50592;52.958;-7.470;2023-05-19T09:29:14;26.08;;;5.85;;
64252;SDS011;50592;52.958;-7.470;2023-05-19T09:31:52;20.50;;;5.03;;
64252;SDS011;50592;52.958;-7.470;2023-05-19T09:34:27;24.15;;;5.13;;
64252;SDS011;50592;52.958;-7.470;2023-05-19T09:36:57;19.25;;;4.35;;
64252;SDS011;50592;52.958;-7.470;2023-05-19T09:39:27;24.15;;;4.72;;
64252;SDS011;50592;52.958;-7.470;2023-05-19T09:41:58;22.58;;;5.18;;
64252;SDS011;50592;52.958;-7.470;2023-05-19T09:44:33;23.85;;;5.13;;
64252;SDS011;50592;52.958;-7.470;2023-05-19T09:47:03;20.33;;;4.75;;
64252;SDS011;50592;52.958;-7.470;2023-05-19T09:49:33;20.20;;;4.75;;
64252;SDS011;50592;52.958;-7.470;2023-05-19T09:52:03;23.08;;;4.40;;
64252;SDS011;50592;52.958;-7.470;2023-05-19T09:54:32;18.70;;;4.50;;
64252;SDS011;50592;52.958;-7.470;2023-05-19T09:57:02;21.35;;;4.70;;
64252;SDS011;50592;52.958;-7.470;2023-05-19T09:59:30;20.80;;;5.53;;
64252;SDS011;50592;52.958;-7.470;2023-05-19T10:02:00;20.52;;;4.88;;
64252;SDS011;50592;52.958;-7.470;2023-05-19T10:04:28;26.85;;;5.30;;
64252;SDS011;50592;52.958;-7.470;2023-05-19T10:06:57;20.00;;;5.00;;
64252;SDS011;50592;52.958;-7.470;2023-05-19T10:09:25;24.27;;;4.93;;
64252;SDS011;50592;52.958;-7.470;2023-05-19T10:11:57;23.15;;;4.35;;
64252;SDS011;50592;52.958;-7.470;2023-05-19T10:14:27;22.23;;;5.80;;
64252;SDS011;50592;52.958;-7.470;2023-05-19T10:16:58;25.17;;;5.18;;
64252;SDS011;50592;52.958;-7.470;2023-05-19T10:19:28;17.70;;;4.75;;
64252;SDS011;50592;52.958;-7.470;2023-05-19T10:21:58;22.52;;;6.07;;
64252;SDS011;50592;52.958;-7.470;2023-05-19T10:24:28;17.00;;;4.32;;
64252;SDS011;50592;52.958;-7.470;2023-05-19T10:27:02;21.23;;;5.03;;
64252;SDS011;50592;52.958;-7.470;2023-05-19T10:29:37;19.65;;;5.20;;
64252;SDS011;50592;52.958;-7.470;2023-05-19T10:32:10;17.70;;;4.70;;
64252;SDS011;50592;52.958;-7.470;2023-05-19T10:40:23;20.95;;;4.10;;
64252;SDS011;50592;52.958;-7.470;2023-05-19T10:45:47;23.73;;;5.40;;
64252;SDS011;50592;52.958;-7.470;2023-05-19T10:48:19;16.17;;;4.43;;
64252;SDS011;50592;52.958;-7.470;2023-05-19T10:50:46;16.90;;;4.85;;
64252;SDS011;50592;52.958;-7.470;2023-05-19T10:53:17;29.60;;;5.70;;
64252;SDS011;50592;52.958;-7.470;2023-05-19T10:55:45;20.33;;;4.40;;
64252;SDS011;50592;52.958;-7.470;2023-05-19T10:58:15;16.90;;;3.60;;
64252;SDS011;50592;52.958;-7.470;2023-05-19T11:01:05;21.70;;;4.70;;
64252;SDS011;50592;52.958;-7.470;2023-05-19T11:03:46;17.60;;;4.30;;
64252;SDS011;50592;52.958;-7.470;2023-05-19T11:06:18;20.02;;;4.88;;
64252;SDS011;50592;52.958;-7.470;2023-05-19T11:08:58;14.60;;;3.45;;
64252;SDS011;50592;52.958;-7.470;2023-05-19T11:11:48;17.25;;;4.35;;
64252;SDS011;50592;52.958;-7.470;2023-05-19T11:14:22;12.18;;;4.05;;
64252;SDS011;50592;52.958;-7.470;2023-05-19T11:16:55;16.48;;;4.32;;
64252;SDS011;50592;52.958;-7.470;2023-05-19T11:19:26;15.77;;;4.65;;
64252;SDS011;50592;52.958;-7.470;2023-05-19T11:22:07;22.58;;;4.28;;
64252;SDS011;50592;52.958;-7.470;2023-05-19T11:24:45;23.20;;;4.82;;
64252;SDS011;50592;52.958;-7.470;2023-05-19T11:30:07;20.17;;;4.15;;
64252;SDS011;50592;52.958;-7.470;2023-05-19T11:32:47;12.13;;;3.67;;
64252;SDS011;50592;52.958;-7.470;2023-05-19T11:35:16;14.68;;;3.58;;
64252;SDS011;50592;52.958;-7.470;2023-05-19T11:37:48;16.77;;;4.22;;
64252;SDS011;50592;52.958;-7.470;2023-05-19T11:40:22;15.98;;;4.65;;
64252;SDS011;50592;52.958;-7.470;2023-05-19T11:42:52;18.90;;;4.47;;
64252;SDS011;50592;52.958;-7.470;2023-05-19T11:45:25;21.15;;;4.43;;
64252;SDS011;50592;52.958;-7.470;2023-05-19T11:47:55;15.00;;;3.97;;
64252;SDS011;50592;52.958;-7.470;2023-05-19T11:50:34;20.52;;;4.93;;
64252;SDS011;50592;52.958;-7.470;2023-05-19T11:53:05;14.65;;;4.18;;
64252;SDS011;50592;52.958;-7.470;2023-05-19T11:55:35;17.45;;;4.22;;
64252;SDS011;50592;52.958;-7.470;2023-05-19T11:58:11;14.93;;;3.90;;
64252;SDS011;50592;52.958;-7.470;2023-05-19T12:00:42;14.85;;;4.00;;
64252;SDS011;50592;52.958;-7.470;2023-05-19T12:03:14;18.73;;;5.18;;
64252;SDS011;50592;52.958;-7.470;2023-05-19T12:05:55;15.35;;;3.78;;
64252;SDS011;50592;52.958;-7.470;2023-05-19T12:08:25;16.77;;;3.70;;
64252;SDS011;50592;52.958;-7.470;2023-05-19T12:10:55;19.85;;;4.05;;
64252;SDS011;50592;52.958;-7.470;2023-05-19T12:13:22;10.10;;;3.75;;
64252;SDS011;50592;52.958;-7.470;2023-05-19T12:15:52;16.75;;;4.13;;
64252;SDS011;50592;52.958;-7.470;2023-05-19T12:18:18;17.27;;;3.80;;
64252;SDS011;50592;52.958;-7.470;2023-05-19T12:20:47;10.55;;;3.67;;
64252;SDS011;50592;52.958;-7.470;2023-05-19T12:23:14;9.00;;;3.70;;
64252;SDS011;50592;52.958;-7.470;2023-05-19T12:25:43;14.88;;;3.60;;
64252;SDS011;50592;52.958;-7.470;2023-05-19T12:28:10;9.18;;;3.08;;
64252;SDS011;50592;52.958;-7.470;2023-05-19T12:30:39;11.95;;;4.05;;
64252;SDS011;50592;52.958;-7.470;2023-05-19T12:33:06;14.55;;;3.95;;
64252;SDS011;50592;52.958;-7.470;2023-05-19T12:35:36;13.18;;;3.33;;
64252;SDS011;50592;52.958;-7.470;2023-05-19T12:38:03;14.43;;;3.90;;
64252;SDS011;50592;52.958;-7.470;2023-05-19T12:40:32;15.45;;;4.10;;
64252;SDS011;50592;52.958;-7.470;2023-05-19T12:43:00;14.43;;;3.65;;
64252;SDS011;50592;52.958;-7.470;2023-05-19T12:45:33;13.45;;;3.33;;
64252;SDS011;50592;52.958;-7.470;2023-05-19T12:48:04;11.80;;;3.10;;
64252;SDS011;50592;52.958;-7.470;2023-05-19T12:50:39;12.23;;;3.33;;
64252;SDS011;50592;52.958;-7.470;2023-05-19T12:53:12;14.38;;;3.78;;
64252;SDS011;50592;52.958;-7.470;2023-05-19T12:55:43;12.45;;;3.38;;
64252;SDS011;50592;52.958;-7.470;2023-05-19T12:58:14;16.77;;;4.25;;
64252;SDS011;50592;52.958;-7.470;2023-05-19T13:00:44;13.70;;;3.67;;
64252;SDS011;50592;52.958;-7.470;2023-05-19T13:03:16;9.73;;;3.17;;
64252;SDS011;50592;52.958;-7.470;2023-05-19T13:05:47;17.65;;;3.22;;
64252;SDS011;50592;52.958;-7.470;2023-05-19T13:08:16;15.27;;;4.13;;
64252;SDS011;50592;52.958;-7.470;2023-05-19T13:10:53;15.23;;;3.65;;
64252;SDS011;50592;52.958;-7.470;2023-05-19T13:13:23;15.43;;;4.57;;
64252;SDS011;50592;52.958;-7.470;2023-05-19T13:15:53;10.73;;;3.78;;
64252;SDS011;50592;52.958;-7.470;2023-05-19T13:18:20;15.13;;;4.25;;
64252;SDS011;50592;52.958;-7.470;2023-05-19T13:20:51;16.73;;;3.95;;
64252;SDS011;50592;52.958;-7.470;2023-05-19T13:23:22;14.40;;;3.55;;
64252;SDS011;50592;52.958;-7.470;2023-05-19T13:25:53;12.65;;;3.72;;
64252;SDS011;50592;52.958;-7.470;2023-05-19T13:28:22;12.82;;;3.53;;
64252;SDS011;50592;52.958;-7.470;2023-05-19T13:30:53;13.45;;;3.97;;
64252;SDS011;50592;52.958;-7.470;2023-05-19T13:33:23;17.15;;;3.95;;
64252;SDS011;50592;52.958;-7.470;2023-05-19T13:35:53;18.60;;;3.65;;
64252;SDS011;50592;52.958;-7.470;2023-05-19T13:38:19;11.20;;;3.35;;
64252;SDS011;50592;52.958;-7.470;2023-05-19T13:40:48;14.43;;;3.55;;
64252;SDS011;50592;52.958;-7.470;2023-05-19T13:43:15;12.07;;;3.40;;
64252;SDS011;50592;52.958;-7.470;2023-05-19T13:45:44;13.40;;;3.90;;
64252;SDS011;50592;52.958;-7.470;2023-05-19T13:48:11;10.95;;;3.35;;
64252;SDS011;50592;52.958;-7.470;2023-05-19T13:50:39;13.45;;;3.17;;
64252;SDS011;50592;52.958;-7.470;2023-05-19T13:53:06;16.02;;;4.30;;
64252;SDS011;50592;52.958;-7.470;2023-05-19T13:55:35;10.02;;;3.20;;
64252;SDS011;50592;52.958;-7.470;2023-05-19T13:58:02;13.52;;;3.45;;
64252;SDS011;50592;52.958;-7.470;2023-05-19T14:00:32;17.35;;;3.85;;
64252;SDS011;50592;52.958;-7.470;2023-05-19T14:03:03;10.68;;;3.33;;
64252;SDS011;50592;52.958;-7.470;2023-05-19T14:05:33;14.77;;;4.07;;
64252;SDS011;50592;52.958;-7.470;2023-05-19T14:08:03;12.77;;;3.30;;
64252;SDS011;50592;52.958;-7.470;2023-05-19T14:10:30;14.15;;;4.88;;
64252;SDS011;50592;52.958;-7.470;2023-05-19T14:13:00;12.30;;;3.88;;
64252;SDS011;50592;52.958;-7.470;2023-05-19T14:15:32;12.35;;;3.85;;
64252;SDS011;50592;52.958;-7.470;2023-05-19T14:18:04;12.48;;;3.58;;
64252;SDS011;50592;52.958;-7.470;2023-05-19T14:20:31;13.65;;;3.85;;
64252;SDS011;50592;52.958;-7.470;2023-05-19T14:23:00;10.30;;;3.50;;
64252;SDS011;50592;52.958;-7.470;2023-05-19T14:25:27;12.63;;;3.45;;
64252;SDS011;50592;52.958;-7.470;2023-05-19T14:27:55;10.90;;;3.30;;
64252;SDS011;50592;52.958;-7.470;2023-05-19T14:30:22;13.18;;;3.50;;
64252;SDS011;50592;52.958;-7.470;2023-05-19T14:32:51;15.80;;;3.25;;
64252;SDS011;50592;52.958;-7.470;2023-05-19T14:35:17;10.18;;;3.13;;
64252;SDS011;50592;52.958;-7.470;2023-05-19T14:37:46;8.80;;;3.00;;
64252;SDS011;50592;52.958;-7.470;2023-05-19T14:40:13;10.10;;;3.85;;
64252;SDS011;50592;52.958;-7.470;2023-05-19T14:42:43;15.10;;;3.88;;
64252;SDS011;50592;52.958;-7.470;2023-05-19T14:45:12;8.07;;;2.97;;
64252;SDS011;50592;52.958;-7.470;2023-05-19T14:47:43;9.10;;;3.00;;
64252;SDS011;50592;52.958;-7.470;2023-05-19T14:50:12;13.32;;;3.35;;
64252;SDS011;50592;52.958;-7.470;2023-05-19T14:52:42;15.93;;;4.25;;
64252;SDS011;50592;52.958;-7.470;2023-05-19T14:55:12;13.88;;;3.72;;
64252;SDS011;50592;52.958;-7.470;2023-05-19T14:57:42;9.73;;;3.28;;
64252;SDS011;50592;52.958;-7.470;2023-05-19T15:00:08;15.20;;;3.47;;
64252;SDS011;50592;52.958;-7.470;2023-05-19T15:02:39;14.48;;;4.30;;
64252;SDS011;50592;52.958;-7.470;2023-05-19T15:05:06;13.15;;;3.05;;
64252;SDS011;50592;52.958;-7.470;2023-05-19T15:07:35;9.75;;;3.10;;
64252;SDS011;50592;52.958;-7.470;2023-05-19T15:10:02;11.85;;;4.05;;
64252;SDS011;50592;52.958;-7.470;2023-05-19T15:12:32;12.73;;;3.65;;
64252;SDS011;50592;52.958;-7.470;2023-05-19T15:14:59;14.13;;;3.33;;
64252;SDS011;50592;52.958;-7.470;2023-05-19T15:17:28;8.27;;;3.40;;
64252;SDS011;50592;52.958;-7.470;2023-05-19T15:19:54;10.07;;;3.38;;
64252;SDS011;50592;52.958;-7.470;2023-05-19T15:22:23;8.82;;;3.08;;
64252;SDS011;50592;52.958;-7.470;2023-05-19T15:24:50;20.27;;;3.45;;